sensor_id;sensor_type;location;lat;lon;timestamp;P1;durP1;ratioP1;P2;durP2;ratioP2
34359;SDS011;20624;55.870;26.506;2023-04-21T00:02:18;12.20;;;3.40;;
34359;SDS011;20624;55.870;26.506;2023-04-21T00:04:47;10.75;;;2.47;;
34359;SDS011;20624;55.870;26.506;2023-04-21T00:07:15;9.65;;;2.47;;
34359;SDS011;20624;55.870;26.506;2023-04-21T00:09:45;17.20;;;3.33;;
34359;SDS011;20624;55.870;26.506;2023-04-21T00:12:15;7.30;;;2.35;;
34359;SDS011;20624;55.870;26.506;2023-04-21T00:14:43;9.82;;;2.60;;
34359;SDS011;20624;55.870;26.506;2023-04-21T00:17:11;16.20;;;3.03;;
34359;SDS011;20624;55.870;26.506;2023-04-21T00:19:39;10.63;;;2.67;;
34359;SDS011;20624;55.870;26.506;2023-04-21T00:22:07;10.85;;;3.00;;
34359;SDS011;20624;55.870;26.506;2023-04-21T00:24:40;9.80;;;2.00;;
34359;SDS011;20624;55.870;26.506;2023-04-21T00:27:07;10.50;;;2.60;;
34359;SDS011;20624;55.870;26.506;2023-04-21T00:29:36;14.52;;;2.65;;
34359;SDS011;20624;55.870;26.506;2023-04-21T00:32:06;7.70;;;2.42;;
34359;SDS011;20624;55.870;26.506;2023-04-21T00:34:35;18.77;;;3.50;;
34359;SDS011;20624;55.870;26.506;2023-04-21T00:37:02;12.75;;;2.67;;
34359;SDS011;20624;55.870;26.506;2023-04-21T00:39:30;15.00;;;3.20;;
34359;SDS011;20624;55.870;26.506;2023-04-21T00:42:01;13.05;;;2.88;;
34359;SDS011;20624;55.870;26.506;2023-04-21T00:44:28;11.98;;;2.63;;
34359;SDS011;20624;55.870;26.506;2023-04-21T00:46:56;14.10;;;3.60;;
34359;SDS011;20624;55.870;26.506;2023-04-21T00:49:24;11.90;;;3.22;;
34359;SDS011;20624;55.870;26.506;2023-04-21T00:51:52;13.98;;;3.17;;
34359;SDS011;20624;55.870;26.506;2023-04-21T00:54:20;11.77;;;3.20;;
34359;SDS011;20624;55.870;26.506;2023-04-21T00:56:51;18.58;;;3.65;;
34359;SDS011;20624;55.870;26.506;2023-04-21T00:59:19;27.50;;;5.20;;
34359;SDS011;20624;55.870;26.506;2023-04-21T01:01:47;10.32;;;3.50;;
34359;SDS011;20624;55.870;26.506;2023-04-21T01:04:15;13.00;;;3.83;;
34359;SDS011;20624;55.870;26.506;2023-04-21T01:06:43;19.48;;;3.38;;
34359;SDS011;20624;55.870;26.506;2023-04-21T01:09:14;18.13;;;3.95;;
34359;SDS011;20624;55.870;26.506;2023-04-21T01:11:42;9.52;;;3.15;;
34359;SDS011;20624;55.870;26.506;2023-04-21T01:14:27;10.55;;;2.80;;
34359;SDS011;20624;55.870;26.506;2023-04-21T01:16:55;12.70;;;2.85;;
34359;SDS011;20624;55.870;26.506;2023-04-21T01:19:23;14.70;;;3.25;;
34359;SDS011;20624;55.870;26.506;2023-04-21T01:21:52;10.48;;;2.47;;
34359;SDS011;20624;55.870;26.506;2023-04-21T01:24:23;11.35;;;2.90;;
34359;SDS011;20624;55.870;26.506;2023-04-21T01:26:51;14.07;;;3.33;;
34359;SDS011;20624;55.870;26.506;2023-04-21T01:29:18;12.90;;;2.97;;
34359;SDS011;20624;55.870;26.506;2023-04-21T01:34:16;9.57;;;2.55;;
34359;SDS011;20624;55.870;26.506;2023-04-21T01:36:44;14.30;;;3.22;;
34359;SDS011;20624;55.870;26.506;2023-04-21T01:39:12;10.95;;;2.65;;
34359;SDS011;20624;55.870;26.506;2023-04-21T01:41:39;14.93;;;2.95;;
34359;SDS011;20624;55.870;26.506;2023-04-21T01:44:07;12.82;;;2.83;;
34359;SDS011;20624;55.870;26.506;2023-04-21T01:46:35;15.40;;;3.38;;
34359;SDS011;20624;55.870;26.506;2023-04-21T01:49:06;13.50;;;2.92;;
34359;SDS011;20624;55.870;26.506;2023-04-21T01:51:34;14.48;;;3.33;;
34359;SDS011;20624;55.870;26.506;2023-04-21T01:54:02;14.82;;;3.28;;
34359;SDS011;20624;55.870;26.506;2023-04-21T01:56:30;22.10;;;4.05;;
34359;SDS011;20624;55.870;26.506;2023-04-21T01:59:00;12.55;;;3.03;;
34359;SDS011;20624;55.870;26.506;2023-04-21T02:01:29;8.65;;;2.47;;
34359;SDS011;20624;55.870;26.506;2023-04-21T02:03:58;10.07;;;2.60;;
34359;SDS011;20624;55.870;26.506;2023-04-21T02:06:26;24.50;;;4.47;;
34359;SDS011;20624;55.870;26.506;2023-04-21T02:08:54;15.48;;;3.50;;
34359;SDS011;20624;55.870;26.506;2023-04-21T02:11:24;9.80;;;2.80;;
34359;SDS011;20624;55.870;26.506;2023-04-21T02:13:53;18.00;;;3.42;;
34359;SDS011;20624;55.870;26.506;2023-04-21T02:16:21;13.00;;;3.15;;
34359;SDS011;20624;55.870;26.506;2023-04-21T02:18:52;23.40;;;4.78;;
34359;SDS011;20624;55.870;26.506;2023-04-21T02:21:20;15.23;;;3.10;;
34359;SDS011;20624;55.870;26.506;2023-04-21T02:23:48;19.40;;;3.88;;
34359;SDS011;20624;55.870;26.506;2023-04-21T02:26:16;21.65;;;4.50;;
34359;SDS011;20624;55.870;26.506;2023-04-21T02:28:44;14.80;;;3.42;;
34359;SDS011;20624;55.870;26.506;2023-04-21T02:31:12;13.32;;;3.42;;
34359;SDS011;20624;55.870;26.506;2023-04-21T02:33:40;11.05;;;3.08;;
34359;SDS011;20624;55.870;26.506;2023-04-21T02:36:07;12.88;;;3.55;;
34359;SDS011;20624;55.870;26.506;2023-04-21T02:38:35;13.85;;;3.47;;
34359;SDS011;20624;55.870;26.506;2023-04-21T02:41:03;15.65;;;3.78;;
34359;SDS011;20624;55.870;26.506;2023-04-21T02:43:31;8.85;;;3.08;;
34359;SDS011;20624;55.870;26.506;2023-04-21T02:45:58;13.88;;;3.65;;
34359;SDS011;20624;55.870;26.506;2023-04-21T02:48:26;16.00;;;3.95;;
34359;SDS011;20624;55.870;26.506;2023-04-21T02:50:54;12.35;;;3.08;;
34359;SDS011;20624;55.870;26.506;2023-04-21T02:53:22;13.07;;;3.60;;
34359;SDS011;20624;55.870;26.506;2023-04-21T02:55:50;10.30;;;2.88;;
34359;SDS011;20624;55.870;26.506;2023-04-21T02:58:18;14.32;;;3.22;;
34359;SDS011;20624;55.870;26.506;2023-04-21T03:00:48;11.93;;;3.05;;
34359;SDS011;20624;55.870;26.506;2023-04-21T03:03:18;18.30;;;4.03;;
34359;SDS011;20624;55.870;26.506;2023-04-21T03:05:47;10.80;;;3.28;;
34359;SDS011;20624;55.870;26.506;2023-04-21T03:08:15;13.02;;;2.97;;
34359;SDS011;20624;55.870;26.506;2023-04-21T03:10:42;16.17;;;3.42;;
34359;SDS011;20624;55.870;26.506;2023-04-21T03:13:10;9.57;;;2.08;;
34359;SDS011;20624;55.870;26.506;2023-04-21T03:15:38;10.32;;;2.63;;
34359;SDS011;20624;55.870;26.506;2023-04-21T03:18:06;17.73;;;3.47;;
34359;SDS011;20624;55.870;26.506;2023-04-21T03:20:36;12.48;;;2.80;;
34359;SDS011;20624;55.870;26.506;2023-04-21T03:23:04;11.20;;;2.70;;
34359;SDS011;20624;55.870;26.506;2023-04-21T03:25:34;17.55;;;3.90;;
34359;SDS011;20624;55.870;26.506;2023-04-21T03:28:02;15.48;;;3.42;;
34359;SDS011;20624;55.870;26.506;2023-04-21T03:30:32;11.30;;;3.00;;
34359;SDS011;20624;55.870;26.506;2023-04-21T03:33:02;11.05;;;3.00;;
34359;SDS011;20624;55.870;26.506;2023-04-21T03:35:30;12.13;;;2.90;;
34359;SDS011;20624;55.870;26.506;2023-04-21T03:37:59;12.20;;;2.65;;
34359;SDS011;20624;55.870;26.506;2023-04-21T03:40:29;14.80;;;2.97;;
34359;SDS011;20624;55.870;26.506;2023-04-21T03:42:57;9.70;;;2.70;;
34359;SDS011;20624;55.870;26.506;2023-04-21T03:45:25;9.27;;;2.42;;
34359;SDS011;20624;55.870;26.506;2023-04-21T03:47:53;15.68;;;3.60;;
34359;SDS011;20624;55.870;26.506;2023-04-21T03:50:21;15.60;;;3.58;;
34359;SDS011;20624;55.870;26.506;2023-04-21T03:52:49;15.60;;;3.28;;
34359;SDS011;20624;55.870;26.506;2023-04-21T03:55:17;10.48;;;2.60;;
34359;SDS011;20624;55.870;26.506;2023-04-21T03:57:44;7.78;;;2.20;;
34359;SDS011;20624;55.870;26.506;2023-04-21T04:00:13;10.68;;;2.92;;
34359;SDS011;20624;55.870;26.506;2023-04-21T04:02:41;11.68;;;3.00;;
34359;SDS011;20624;55.870;26.506;2023-04-21T04:05:09;17.90;;;3.50;;
34359;SDS011;20624;55.870;26.506;2023-04-21T04:07:37;8.68;;;2.55;;
34359;SDS011;20624;55.870;26.506;2023-04-21T04:10:05;9.80;;;2.70;;
34359;SDS011;20624;55.870;26.506;2023-04-21T04:12:33;15.95;;;3.70;;
34359;SDS011;20624;55.870;26.506;2023-04-21T04:15:01;12.48;;;2.85;;
34359;SDS011;20624;55.870;26.506;2023-04-21T04:17:29;9.10;;;2.10;;
34359;SDS011;20624;55.870;26.506;2023-04-21T04:19:57;9.85;;;2.30;;
34359;SDS011;20624;55.870;26.506;2023-04-21T04:22:27;12.07;;;2.40;;
34359;SDS011;20624;55.870;26.506;2023-04-21T04:24:57;9.60;;;2.42;;
34359;SDS011;20624;55.870;26.506;2023-04-21T04:27:26;10.27;;;2.75;;
34359;SDS011;20624;55.870;26.506;2023-04-21T04:29:57;12.63;;;3.00;;
34359;SDS011;20624;55.870;26.506;2023-04-21T04:32:25;9.50;;;2.35;;
34359;SDS011;20624;55.870;26.506;2023-04-21T04:34:54;27.50;;;5.15;;
34359;SDS011;20624;55.870;26.506;2023-04-21T04:37:21;17.13;;;3.30;;
34359;SDS011;20624;55.870;26.506;2023-04-21T04:39:53;11.07;;;2.83;;
34359;SDS011;20624;55.870;26.506;2023-04-21T04:42:22;19.95;;;3.63;;
34359;SDS011;20624;55.870;26.506;2023-04-21T04:44:53;12.15;;;2.63;;
34359;SDS011;20624;55.870;26.506;2023-04-21T04:47:22;18.92;;;3.47;;
34359;SDS011;20624;55.870;26.506;2023-04-21T04:49:50;14.32;;;2.67;;
34359;SDS011;20624;55.870;26.506;2023-04-21T04:52:18;11.93;;;2.17;;
34359;SDS011;20624;55.870;26.506;2023-04-21T04:54:46;19.65;;;3.53;;
34359;SDS011;20624;55.870;26.506;2023-04-21T04:57:13;21.15;;;3.53;;
34359;SDS011;20624;55.870;26.506;2023-04-21T04:59:41;14.02;;;2.95;;
34359;SDS011;20624;55.870;26.506;2023-04-21T05:02:10;23.50;;;3.95;;
34359;SDS011;20624;55.870;26.506;2023-04-21T05:04:38;23.50;;;4.03;;
34359;SDS011;20624;55.870;26.506;2023-04-21T05:07:06;14.23;;;2.42;;
34359;SDS011;20624;55.870;26.506;2023-04-21T05:09:34;16.13;;;2.63;;
34359;SDS011;20624;55.870;26.506;2023-04-21T05:12:02;24.38;;;4.05;;
34359;SDS011;20624;55.870;26.506;2023-04-21T05:14:30;21.00;;;3.38;;
34359;SDS011;20624;55.870;26.506;2023-04-21T05:16:58;17.52;;;3.30;;
34359;SDS011;20624;55.870;26.506;2023-04-21T05:19:28;65.55;;;9.52;;
34359;SDS011;20624;55.870;26.506;2023-04-21T05:21:59;27.20;;;4.38;;
34359;SDS011;20624;55.870;26.506;2023-04-21T05:24:27;36.45;;;5.30;;
34359;SDS011;20624;55.870;26.506;2023-04-21T05:26:55;10.85;;;1.92;;
34359;SDS011;20624;55.870;26.506;2023-04-21T05:29:22;28.83;;;4.18;;
34359;SDS011;20624;55.870;26.506;2023-04-21T05:31:50;28.58;;;4.38;;
34359;SDS011;20624;55.870;26.506;2023-04-21T05:34:18;56.47;;;7.90;;
34359;SDS011;20624;55.870;26.506;2023-04-21T05:36:47;38.38;;;5.72;;
34359;SDS011;20624;55.870;26.506;2023-04-21T05:39:15;54.35;;;7.22;;
34359;SDS011;20624;55.870;26.506;2023-04-21T05:41:43;26.60;;;3.60;;
34359;SDS011;20624;55.870;26.506;2023-04-21T05:44:11;42.28;;;5.65;;
34359;SDS011;20624;55.870;26.506;2023-04-21T05:46:39;25.48;;;3.30;;
34359;SDS011;20624;55.870;26.506;2023-04-21T05:49:07;36.30;;;4.78;;
34359;SDS011;20624;55.870;26.506;2023-04-21T05:51:35;34.83;;;4.68;;
34359;SDS011;20624;55.870;26.506;2023-04-21T05:54:07;52.10;;;6.93;;
34359;SDS011;20624;55.870;26.506;2023-04-21T05:56:40;80.53;;;10.52;;
34359;SDS011;20624;55.870;26.506;2023-04-21T05:59:07;74.15;;;9.93;;
34359;SDS011;20624;55.870;26.506;2023-04-21T06:01:35;44.47;;;6.18;;
34359;SDS011;20624;55.870;26.506;2023-04-21T06:04:04;50.17;;;6.93;;
34359;SDS011;20624;55.870;26.506;2023-04-21T06:06:33;54.58;;;7.55;;
34359;SDS011;20624;55.870;26.506;2023-04-21T06:09:01;24.83;;;3.40;;
34359;SDS011;20624;55.870;26.506;2023-04-21T06:11:29;42.50;;;5.72;;
34359;SDS011;20624;55.870;26.506;2023-04-21T06:13:59;37.63;;;5.13;;
34359;SDS011;20624;55.870;26.506;2023-04-21T06:16:27;28.67;;;3.88;;
34359;SDS011;20624;55.870;26.506;2023-04-21T06:18:57;25.10;;;3.30;;
34359;SDS011;20624;55.870;26.506;2023-04-21T06:21:25;23.90;;;3.08;;
34359;SDS011;20624;55.870;26.506;2023-04-21T06:23:54;33.92;;;4.88;;
34359;SDS011;20624;55.870;26.506;2023-04-21T06:26:21;30.02;;;3.97;;
34359;SDS011;20624;55.870;26.506;2023-04-21T06:28:50;34.03;;;4.65;;
34359;SDS011;20624;55.870;26.506;2023-04-21T06:31:20;26.00;;;3.42;;
34359;SDS011;20624;55.870;26.506;2023-04-21T06:33:48;26.55;;;3.70;;
34359;SDS011;20624;55.870;26.506;2023-04-21T06:36:16;39.80;;;5.90;;
34359;SDS011;20624;55.870;26.506;2023-04-21T06:38:44;29.48;;;4.20;;
34359;SDS011;20624;55.870;26.506;2023-04-21T06:41:13;40.72;;;5.45;;
34359;SDS011;20624;55.870;26.506;2023-04-21T06:43:44;55.08;;;7.47;;
34359;SDS011;20624;55.870;26.506;2023-04-21T06:46:12;44.13;;;6.10;;
34359;SDS011;20624;55.870;26.506;2023-04-21T06:48:39;44.92;;;5.88;;
34359;SDS011;20624;55.870;26.506;2023-04-21T06:51:07;29.23;;;4.32;;
34359;SDS011;20624;55.870;26.506;2023-04-21T06:53:35;25.55;;;3.65;;
34359;SDS011;20624;55.870;26.506;2023-04-21T06:56:03;38.83;;;5.45;;
34359;SDS011;20624;55.870;26.506;2023-04-21T06:58:31;24.95;;;3.58;;
34359;SDS011;20624;55.870;26.506;2023-04-21T07:00:59;30.83;;;4.20;;
34359;SDS011;20624;55.870;26.506;2023-04-21T07:03:28;39.67;;;5.22;;
34359;SDS011;20624;55.870;26.506;2023-04-21T07:05:56;46.63;;;6.05;;
34359;SDS011;20624;55.870;26.506;2023-04-21T07:08:24;25.52;;;3.25;;
34359;SDS011;20624;55.870;26.506;2023-04-21T07:10:51;26.08;;;3.53;;
34359;SDS011;20624;55.870;26.506;2023-04-21T07:13:19;37.08;;;4.88;;
34359;SDS011;20624;55.870;26.506;2023-04-21T07:15:47;28.95;;;3.78;;
34359;SDS011;20624;55.870;26.506;2023-04-21T07:18:15;32.50;;;4.28;;
34359;SDS011;20624;55.870;26.506;2023-04-21T07:20:44;51.22;;;6.88;;
34359;SDS011;20624;55.870;26.506;2023-04-21T07:23:13;38.10;;;5.10;;
34359;SDS011;20624;55.870;26.506;2023-04-21T07:25:40;31.15;;;4.07;;
34359;SDS011;20624;55.870;26.506;2023-04-21T07:28:14;47.78;;;6.75;;
34359;SDS011;20624;55.870;26.506;2023-04-21T07:30:42;37.55;;;5.22;;
34359;SDS011;20624;55.870;26.506;2023-04-21T07:33:13;31.85;;;4.47;;
34359;SDS011;20624;55.870;26.506;2023-04-21T07:35:41;35.90;;;4.80;;
34359;SDS011;20624;55.870;26.506;2023-04-21T07:38:09;70.43;;;9.38;;
34359;SDS011;20624;55.870;26.506;2023-04-21T07:40:37;24.92;;;3.45;;
34359;SDS011;20624;55.870;26.506;2023-04-21T07:43:05;52.08;;;6.93;;
34359;SDS011;20624;55.870;26.506;2023-04-21T07:45:33;35.22;;;4.55;;
34359;SDS011;20624;55.870;26.506;2023-04-21T07:48:00;28.00;;;3.92;;
34359;SDS011;20624;55.870;26.506;2023-04-21T07:50:29;26.65;;;3.55;;
34359;SDS011;20624;55.870;26.506;2023-04-21T07:52:57;30.83;;;3.95;;
34359;SDS011;20624;55.870;26.506;2023-04-21T07:55:25;34.33;;;4.70;;
34359;SDS011;20624;55.870;26.506;2023-04-21T07:57:53;39.72;;;5.30;;
34359;SDS011;20624;55.870;26.506;2023-04-21T08:00:21;36.05;;;4.88;;
34359;SDS011;20624;55.870;26.506;2023-04-21T08:02:53;27.65;;;3.83;;
34359;SDS011;20624;55.870;26.506;2023-04-21T08:05:21;46.33;;;6.10;;
34359;SDS011;20624;55.870;26.506;2023-04-21T08:07:54;18.77;;;2.50;;
34359;SDS011;20624;55.870;26.506;2023-04-21T08:10:21;31.30;;;4.07;;
34359;SDS011;20624;55.870;26.506;2023-04-21T08:12:50;42.60;;;5.78;;
34359;SDS011;20624;55.870;26.506;2023-04-21T08:15:18;33.65;;;4.32;;
34359;SDS011;20624;55.870;26.506;2023-04-21T08:17:45;35.83;;;4.82;;
34359;SDS011;20624;55.870;26.506;2023-04-21T08:20:13;33.80;;;4.45;;
34359;SDS011;20624;55.870;26.506;2023-04-21T08:22:44;42.13;;;5.63;;
34359;SDS011;20624;55.870;26.506;2023-04-21T08:25:16;36.13;;;4.75;;
34359;SDS011;20624;55.870;26.506;2023-04-21T08:27:44;37.00;;;4.80;;
34359;SDS011;20624;55.870;26.506;2023-04-21T08:30:12;29.48;;;4.13;;
34359;SDS011;20624;55.870;26.506;2023-04-21T08:32:40;53.08;;;7.18;;
34359;SDS011;20624;55.870;26.506;2023-04-21T08:35:08;54.80;;;7.22;;
34359;SDS011;20624;55.870;26.506;2023-04-21T08:37:39;45.85;;;6.07;;
34359;SDS011;20624;55.870;26.506;2023-04-21T08:40:07;37.50;;;5.57;;
34359;SDS011;20624;55.870;26.506;2023-04-21T08:42:35;53.25;;;7.15;;
34359;SDS011;20624;55.870;26.506;2023-04-21T08:45:04;37.60;;;5.18;;
34359;SDS011;20624;55.870;26.506;2023-04-21T08:47:32;40.58;;;5.75;;
34359;SDS011;20624;55.870;26.506;2023-04-21T08:50:01;42.22;;;5.78;;
34359;SDS011;20624;55.870;26.506;2023-04-21T08:52:29;62.90;;;8.25;;
34359;SDS011;20624;55.870;26.506;2023-04-21T08:54:57;47.53;;;6.22;;
34359;SDS011;20624;55.870;26.506;2023-04-21T08:57:25;51.03;;;6.97;;
34359;SDS011;20624;55.870;26.506;2023-04-21T08:59:53;42.33;;;5.70;;
34359;SDS011;20624;55.870;26.506;2023-04-21T09:02:24;46.45;;;6.35;;
34359;SDS011;20624;55.870;26.506;2023-04-21T09:04:52;38.85;;;5.38;;
34359;SDS011;20624;55.870;26.506;2023-04-21T09:07:31;43.38;;;5.95;;
34359;SDS011;20624;55.870;26.506;2023-04-21T09:09:59;49.45;;;6.70;;
34359;SDS011;20624;55.870;26.506;2023-04-21T09:12:27;45.83;;;6.20;;
34359;SDS011;20624;55.870;26.506;2023-04-21T09:15:00;46.65;;;6.28;;
34359;SDS011;20624;55.870;26.506;2023-04-21T09:17:30;51.63;;;6.70;;
34359;SDS011;20624;55.870;26.506;2023-04-21T09:20:12;40.35;;;5.80;;
34359;SDS011;20624;55.870;26.506;2023-04-21T09:22:43;32.88;;;4.43;;
34359;SDS011;20624;55.870;26.506;2023-04-21T09:25:14;27.65;;;3.55;;
34359;SDS011;20624;55.870;26.506;2023-04-21T09:27:42;31.45;;;4.40;;
34359;SDS011;20624;55.870;26.506;2023-04-21T09:30:11;31.30;;;4.22;;
34359;SDS011;20624;55.870;26.506;2023-04-21T09:32:39;35.00;;;4.97;;
34359;SDS011;20624;55.870;26.506;2023-04-21T09:35:10;104.72;;;14.88;;
34359;SDS011;20624;55.870;26.506;2023-04-21T09:37:38;35.72;;;4.75;;
34359;SDS011;20624;55.870;26.506;2023-04-21T09:40:11;23.80;;;3.20;;
34359;SDS011;20624;55.870;26.506;2023-04-21T09:42:39;36.15;;;4.85;;
34359;SDS011;20624;55.870;26.506;2023-04-21T09:45:10;31.88;;;4.30;;
34359;SDS011;20624;55.870;26.506;2023-04-21T09:47:41;36.78;;;4.88;;
34359;SDS011;20624;55.870;26.506;2023-04-21T09:50:10;34.92;;;4.68;;
34359;SDS011;20624;55.870;26.506;2023-04-21T09:52:38;48.38;;;6.45;;
34359;SDS011;20624;55.870;26.506;2023-04-21T09:55:12;26.10;;;3.95;;
34359;SDS011;20624;55.870;26.506;2023-04-21T09:57:41;47.45;;;6.38;;
34359;SDS011;20624;55.870;26.506;2023-04-21T10:00:11;27.13;;;3.47;;
34359;SDS011;20624;55.870;26.506;2023-04-21T10:02:44;35.92;;;4.93;;
34359;SDS011;20624;55.870;26.506;2023-04-21T10:05:17;42.10;;;5.68;;
34359;SDS011;20624;55.870;26.506;2023-04-21T10:07:45;40.90;;;5.75;;
34359;SDS011;20624;55.870;26.506;2023-04-21T10:10:16;28.48;;;4.20;;
34359;SDS011;20624;55.870;26.506;2023-04-21T10:12:45;49.70;;;7.00;;
34359;SDS011;20624;55.870;26.506;2023-04-21T10:18:10;24.00;;;3.33;;
34359;SDS011;20624;55.870;26.506;2023-04-21T10:21:02;59.22;;;8.23;;
34359;SDS011;20624;55.870;26.506;2023-04-21T10:23:38;29.52;;;4.15;;
34359;SDS011;20624;55.870;26.506;2023-04-21T10:26:18;68.53;;;9.38;;
34359;SDS011;20624;55.870;26.506;2023-04-21T10:28:47;39.13;;;5.38;;
34359;SDS011;20624;55.870;26.506;2023-04-21T10:31:19;41.60;;;5.80;;
34359;SDS011;20624;55.870;26.506;2023-04-21T10:36:34;26.58;;;3.83;;
34359;SDS011;20624;55.870;26.506;2023-04-21T10:39:08;36.38;;;5.05;;
34359;SDS011;20624;55.870;26.506;2023-04-21T10:41:43;35.10;;;4.88;;
34359;SDS011;20624;55.870;26.506;2023-04-21T10:44:12;28.13;;;3.85;;
34359;SDS011;20624;55.870;26.506;2023-04-21T10:46:50;28.10;;;3.65;;
34359;SDS011;20624;55.870;26.506;2023-04-21T10:57:13;55.88;;;7.38;;
34359;SDS011;20624;55.870;26.506;2023-04-21T10:59:41;22.02;;;3.08;;
34359;SDS011;20624;55.870;26.506;2023-04-21T11:02:14;31.00;;;4.18;;
34359;SDS011;20624;55.870;26.506;2023-04-21T11:04:48;41.08;;;5.47;;
34359;SDS011;20624;55.870;26.506;2023-04-21T11:07:23;43.28;;;6.00;;
34359;SDS011;20624;55.870;26.506;2023-04-21T11:09:58;47.30;;;6.50;;
34359;SDS011;20624;55.870;26.506;2023-04-21T11:12:29;38.75;;;5.32;;
34359;SDS011;20624;55.870;26.506;2023-04-21T11:14:57;28.63;;;4.05;;
34359;SDS011;20624;55.870;26.506;2023-04-21T11:17:25;31.58;;;4.28;;
34359;SDS011;20624;55.870;26.506;2023-04-21T11:19:54;28.42;;;4.15;;
34359;SDS011;20624;55.870;26.506;2023-04-21T11:22:23;36.95;;;5.18;;
34359;SDS011;20624;55.870;26.506;2023-04-21T11:24:54;31.67;;;4.40;;
34359;SDS011;20624;55.870;26.506;2023-04-21T11:27:27;32.15;;;4.63;;
34359;SDS011;20624;55.870;26.506;2023-04-21T11:29:56;47.10;;;6.57;;
34359;SDS011;20624;55.870;26.506;2023-04-21T11:32:24;44.97;;;5.95;;
34359;SDS011;20624;55.870;26.506;2023-04-21T11:34:53;45.90;;;6.25;;
34359;SDS011;20624;55.870;26.506;2023-04-21T11:37:24;30.88;;;4.03;;
34359;SDS011;20624;55.870;26.506;2023-04-21T11:39:57;55.95;;;7.93;;
34359;SDS011;20624;55.870;26.506;2023-04-21T11:42:24;39.55;;;5.60;;
34359;SDS011;20624;55.870;26.506;2023-04-21T11:44:53;37.42;;;5.15;;
34359;SDS011;20624;55.870;26.506;2023-04-21T11:47:23;42.78;;;6.07;;
34359;SDS011;20624;55.870;26.506;2023-04-21T11:49:52;34.58;;;4.93;;
34359;SDS011;20624;55.870;26.506;2023-04-21T11:52:28;35.03;;;4.90;;
34359;SDS011;20624;55.870;26.506;2023-04-21T11:55:11;37.65;;;5.20;;
34359;SDS011;20624;55.870;26.506;2023-04-21T11:57:41;21.63;;;3.28;;
34359;SDS011;20624;55.870;26.506;2023-04-21T12:00:10;37.03;;;5.07;;
34359;SDS011;20624;55.870;26.506;2023-04-21T12:05:10;38.17;;;5.38;;
34359;SDS011;20624;55.870;26.506;2023-04-21T12:07:42;41.40;;;6.05;;
34359;SDS011;20624;55.870;26.506;2023-04-21T12:10:17;47.38;;;6.97;;
34359;SDS011;20624;55.870;26.506;2023-04-21T12:12:45;75.70;;;10.57;;
34359;SDS011;20624;55.870;26.506;2023-04-21T12:15:17;20.83;;;2.95;;
34359;SDS011;20624;55.870;26.506;2023-04-21T12:17:46;29.25;;;4.10;;
34359;SDS011;20624;55.870;26.506;2023-04-21T12:20:19;37.78;;;5.35;;
34359;SDS011;20624;55.870;26.506;2023-04-21T12:22:51;22.20;;;3.33;;
34359;SDS011;20624;55.870;26.506;2023-04-21T12:25:19;43.22;;;6.10;;
34359;SDS011;20624;55.870;26.506;2023-04-21T12:27:50;36.95;;;5.32;;
34359;SDS011;20624;55.870;26.506;2023-04-21T12:30:19;59.05;;;8.38;;
34359;SDS011;20624;55.870;26.506;2023-04-21T12:32:49;30.15;;;4.25;;
34359;SDS011;20624;55.870;26.506;2023-04-21T12:35:21;11.68;;;1.73;;
34359;SDS011;20624;55.870;26.506;2023-04-21T12:37:49;34.35;;;4.85;;
34359;SDS011;20624;55.870;26.506;2023-04-21T12:40:17;24.20;;;3.53;;
34359;SDS011;20624;55.870;26.506;2023-04-21T12:42:45;44.60;;;6.22;;
34359;SDS011;20624;55.870;26.506;2023-04-21T12:45:14;25.70;;;3.72;;
34359;SDS011;20624;55.870;26.506;2023-04-21T12:47:44;45.15;;;6.43;;
34359;SDS011;20624;55.870;26.506;2023-04-21T12:50:12;31.42;;;4.57;;
34359;SDS011;20624;55.870;26.506;2023-04-21T12:52:40;13.63;;;2.17;;
34359;SDS011;20624;55.870;26.506;2023-04-21T12:55:08;21.70;;;3.22;;
34359;SDS011;20624;55.870;26.506;2023-04-21T12:57:39;34.90;;;5.05;;
34359;SDS011;20624;55.870;26.506;2023-04-21T13:00:08;17.48;;;2.58;;
34359;SDS011;20624;55.870;26.506;2023-04-21T13:02:37;40.83;;;5.93;;
34359;SDS011;20624;55.870;26.506;2023-04-21T13:05:06;38.42;;;5.63;;
34359;SDS011;20624;55.870;26.506;2023-04-21T13:07:35;29.20;;;4.32;;
34359;SDS011;20624;55.870;26.506;2023-04-21T13:10:05;30.77;;;4.45;;
34359;SDS011;20624;55.870;26.506;2023-04-21T13:12:34;24.70;;;3.58;;
34359;SDS011;20624;55.870;26.506;2023-04-21T13:15:02;16.65;;;2.25;;
34359;SDS011;20624;55.870;26.506;2023-04-21T13:17:30;15.45;;;2.42;;
34359;SDS011;20624;55.870;26.506;2023-04-21T13:19:58;23.33;;;3.33;;
34359;SDS011;20624;55.870;26.506;2023-04-21T13:22:27;20.75;;;3.28;;
34359;SDS011;20624;55.870;26.506;2023-04-21T13:24:55;24.30;;;3.63;;
34359;SDS011;20624;55.870;26.506;2023-04-21T13:27:22;20.67;;;3.25;;
34359;SDS011;20624;55.870;26.506;2023-04-21T13:29:50;20.02;;;2.90;;
34359;SDS011;20624;55.870;26.506;2023-04-21T13:32:21;30.73;;;4.57;;
34359;SDS011;20624;55.870;26.506;2023-04-21T13:37:24;27.33;;;3.95;;
34359;SDS011;20624;55.870;26.506;2023-04-21T13:39:52;12.90;;;2.03;;
34359;SDS011;20624;55.870;26.506;2023-04-21T13:42:20;13.07;;;2.17;;
34359;SDS011;20624;55.870;26.506;2023-04-21T13:44:48;9.05;;;1.38;;
34359;SDS011;20624;55.870;26.506;2023-04-21T13:47:19;17.35;;;2.63;;
34359;SDS011;20624;55.870;26.506;2023-04-21T13:49:47;18.17;;;2.67;;
34359;SDS011;20624;55.870;26.506;2023-04-21T13:52:15;16.92;;;2.20;;
34359;SDS011;20624;55.870;26.506;2023-04-21T13:54:43;6.93;;;1.02;;
34359;SDS011;20624;55.870;26.506;2023-04-21T13:57:11;10.13;;;1.42;;
34359;SDS011;20624;55.870;26.506;2023-04-21T13:59:40;17.20;;;2.50;;
34359;SDS011;20624;55.870;26.506;2023-04-21T14:02:08;10.88;;;1.55;;
34359;SDS011;20624;55.870;26.506;2023-04-21T14:04:36;20.40;;;2.92;;
34359;SDS011;20624;55.870;26.506;2023-04-21T14:07:05;11.93;;;1.77;;
34359;SDS011;20624;55.870;26.506;2023-04-21T14:09:37;15.18;;;2.20;;
34359;SDS011;20624;55.870;26.506;2023-04-21T14:12:04;16.42;;;2.38;;
34359;SDS011;20624;55.870;26.506;2023-04-21T14:14:33;12.70;;;1.90;;
34359;SDS011;20624;55.870;26.506;2023-04-21T14:17:04;11.90;;;1.75;;
34359;SDS011;20624;55.870;26.506;2023-04-21T14:19:33;5.78;;;0.88;;
34359;SDS011;20624;55.870;26.506;2023-04-21T14:22:02;11.85;;;1.67;;
34359;SDS011;20624;55.870;26.506;2023-04-21T14:24:29;11.82;;;1.60;;
34359;SDS011;20624;55.870;26.506;2023-04-21T14:26:57;9.68;;;1.35;;
34359;SDS011;20624;55.870;26.506;2023-04-21T14:29:25;19.00;;;2.70;;
34359;SDS011;20624;55.870;26.506;2023-04-21T14:31:53;21.75;;;3.30;;
34359;SDS011;20624;55.870;26.506;2023-04-21T14:36:53;22.45;;;3.42;;
34359;SDS011;20624;55.870;26.506;2023-04-21T14:39:21;12.57;;;1.63;;
34359;SDS011;20624;55.870;26.506;2023-04-21T14:41:49;11.73;;;1.83;;
34359;SDS011;20624;55.870;26.506;2023-04-21T14:44:17;10.65;;;1.60;;
34359;SDS011;20624;55.870;26.506;2023-04-21T14:46:45;8.23;;;1.27;;
34359;SDS011;20624;55.870;26.506;2023-04-21T14:49:31;10.77;;;1.42;;
34359;SDS011;20624;55.870;26.506;2023-04-21T14:52:06;47.10;;;7.00;;
34359;SDS011;20624;55.870;26.506;2023-04-21T14:54:36;17.27;;;2.55;;
34359;SDS011;20624;55.870;26.506;2023-04-21T14:57:07;18.48;;;2.85;;
34359;SDS011;20624;55.870;26.506;2023-04-21T14:59:48;6.93;;;1.10;;